sensor_id;sensor_type;location;lat;lon;timestamp;pressure;altitude;pressure_sealevel;temperature;humidity
65872;BME280;52653;50.080;21.992;2023-02-02T00:02:26;98195.59;;;1.55;89.38
65872;BME280;52653;50.080;21.992;2023-02-02T00:05:19;98193.23;;;1.60;89.29
65872;BME280;52653;50.080;21.992;2023-02-02T00:08:13;98191.05;;;1.66;89.36
65872;BME280;52653;50.080;21.992;2023-02-02T00:11:06;98183.85;;;1.71;89.17
65872;BME280;52653;50.080;21.992;2023-02-02T00:13:59;98183.20;;;1.76;89.07
65872;BME280;52653;50.080;21.992;2023-02-02T00:16:52;98178.08;;;1.80;89.02
65872;BME280;52653;50.080;21.992;2023-02-02T00:19:45;98176.36;;;1.83;88.77
65872;BME280;52653;50.080;21.992;2023-02-02T00:22:39;98182.44;;;1.85;88.72
65872;BME280;52653;50.080;21.992;2023-02-02T00:25:32;98179.34;;;1.88;88.59
65872;BME280;52653;50.080;21.992;2023-02-02T00:28:25;98180.94;;;1.90;88.67
65872;BME280;52653;50.080;21.992;2023-02-02T00:31:11;98175.95;;;1.93;88.49
65872;BME280;52653;50.080;21.992;2023-02-02T00:34:04;98178.06;;;1.96;88.56
65872;BME280;52653;50.080;21.992;2023-02-02T00:36:57;98182.22;;;1.98;88.55
65872;BME280;52653;50.080;21.992;2023-02-02T00:39:50;98177.03;;;1.99;88.45
65872;BME280;52653;50.080;21.992;2023-02-02T00:42:45;98172.20;;;1.99;88.32
65872;BME280;52653;50.080;21.992;2023-02-02T00:45:40;98166.14;;;1.99;88.33
65872;BME280;52653;50.080;21.992;2023-02-02T00:48:33;98166.66;;;1.98;88.41
65872;BME280;52653;50.080;21.992;2023-02-02T00:51:26;98162.69;;;1.99;88.42
65872;BME280;52653;50.080;21.992;2023-02-02T00:54:20;98155.77;;;2.00;88.51
65872;BME280;52653;50.080;21.992;2023-02-02T00:57:14;98151.27;;;2.01;88.58
65872;BME280;52653;50.080;21.992;2023-02-02T01:00:12;98152.84;;;2.00;88.56
65872;BME280;52653;50.080;21.992;2023-02-02T01:03:05;98148.69;;;2.00;88.46
65872;BME280;52653;50.080;21.992;2023-02-02T01:05:58;98146.79;;;2.00;88.64
65872;BME280;52653;50.080;21.992;2023-02-02T01:08:51;98146.45;;;2.01;88.81
65872;BME280;52653;50.080;21.992;2023-02-02T01:11:44;98147.84;;;2.02;88.90
65872;BME280;52653;50.080;21.992;2023-02-02T01:14:36;98149.43;;;2.03;89.04
65872;BME280;52653;50.080;21.992;2023-02-02T01:17:29;98146.10;;;2.01;89.01
65872;BME280;52653;50.080;21.992;2023-02-02T01:20:22;98145.21;;;1.98;89.09
65872;BME280;52653;50.080;21.992;2023-02-02T01:23:16;98140.52;;;1.95;89.08
65872;BME280;52653;50.080;21.992;2023-02-02T01:26:10;98138.11;;;1.95;89.30
65872;BME280;52653;50.080;21.992;2023-02-02T01:29:04;98137.58;;;1.94;89.45
65872;BME280;52653;50.080;21.992;2023-02-02T01:31:57;98133.96;;;1.95;89.50
65872;BME280;52653;50.080;21.992;2023-02-02T01:34:50;98127.05;;;1.97;89.72
65872;BME280;52653;50.080;21.992;2023-02-02T01:37:43;98131.56;;;1.99;89.91
65872;BME280;52653;50.080;21.992;2023-02-02T01:40:36;98128.46;;;2.01;89.89
65872;BME280;52653;50.080;21.992;2023-02-02T01:46:44;98127.11;;;2.03;90.04
65872;BME280;52653;50.080;21.992;2023-02-02T01:49:37;98122.95;;;2.03;90.13
65872;BME280;52653;50.080;21.992;2023-02-02T01:52:33;98120.68;;;2.01;90.05
65872;BME280;52653;50.080;21.992;2023-02-02T01:55:28;98121.53;;;1.99;90.23
65872;BME280;52653;50.080;21.992;2023-02-02T01:58:23;98120.33;;;1.99;90.27
65872;BME280;52653;50.080;21.992;2023-02-02T02:01:17;98118.77;;;1.98;90.38
65872;BME280;52653;50.080;21.992;2023-02-02T02:04:10;98122.05;;;1.98;90.43
65872;BME280;52653;50.080;21.992;2023-02-02T02:06:58;98124.98;;;1.97;90.39
65872;BME280;52653;50.080;21.992;2023-02-02T02:09:52;98127.56;;;1.96;90.69
65872;BME280;52653;50.080;21.992;2023-02-02T02:12:45;98124.28;;;1.97;90.72
65872;BME280;52653;50.080;21.992;2023-02-02T02:15:42;98126.38;;;1.99;90.76
65872;BME280;52653;50.080;21.992;2023-02-02T02:19:20;98120.72;;;2.04;90.71
65872;BME280;52653;50.080;21.992;2023-02-02T02:22:19;98115.74;;;2.08;90.60
65872;BME280;52653;50.080;21.992;2023-02-02T02:25:50;98116.98;;;2.13;90.65
65872;BME280;52653;50.080;21.992;2023-02-02T02:29:28;98122.70;;;2.14;90.56
65872;BME280;52653;50.080;21.992;2023-02-02T02:32:31;98125.65;;;2.16;90.61
65872;BME280;52653;50.080;21.992;2023-02-02T02:35:32;98122.56;;;2.16;90.73
65872;BME280;52653;50.080;21.992;2023-02-02T02:38:35;98128.96;;;2.18;90.81
65872;BME280;52653;50.080;21.992;2023-02-02T02:41:34;98124.30;;;2.17;90.79
65872;BME280;52653;50.080;21.992;2023-02-02T02:44:29;98129.64;;;2.17;91.06
65872;BME280;52653;50.080;21.992;2023-02-02T02:47:24;98130.83;;;2.15;91.13
65872;BME280;52653;50.080;21.992;2023-02-02T02:50:17;98131.67;;;2.13;91.36
65872;BME280;52653;50.080;21.992;2023-02-02T02:53:13;98131.66;;;2.11;91.52
65872;BME280;52653;50.080;21.992;2023-02-02T02:56:12;98137.39;;;2.12;91.56
65872;BME280;52653;50.080;21.992;2023-02-02T02:59:13;98143.27;;;2.13;91.58
65872;BME280;52653;50.080;21.992;2023-02-02T03:02:34;98147.42;;;2.14;91.61
65872;BME280;52653;50.080;21.992;2023-02-02T03:05:37;98150.55;;;2.15;91.61
65872;BME280;52653;50.080;21.992;2023-02-02T03:08:36;98157.11;;;2.15;91.64
65872;BME280;52653;50.080;21.992;2023-02-02T03:11:32;98152.09;;;2.14;91.54
65872;BME280;52653;50.080;21.992;2023-02-02T03:14:26;98160.38;;;2.12;91.60
65872;BME280;52653;50.080;21.992;2023-02-02T03:17:19;98160.55;;;2.11;91.45
65872;BME280;52653;50.080;21.992;2023-02-02T03:20:03;98162.27;;;2.10;91.50
65872;BME280;52653;50.080;21.992;2023-02-02T03:22:56;98165.02;;;2.07;91.71
65872;BME280;52653;50.080;21.992;2023-02-02T03:25:49;98166.05;;;2.05;91.80
65872;BME280;52653;50.080;21.992;2023-02-02T03:28:35;98175.17;;;2.03;91.66
65872;BME280;52653;50.080;21.992;2023-02-02T03:31:29;98171.66;;;1.97;91.66
65872;BME280;52653;50.080;21.992;2023-02-02T03:34:22;98174.77;;;1.95;91.75
65872;BME280;52653;50.080;21.992;2023-02-02T03:37:17;98180.97;;;1.93;91.78
65872;BME280;52653;50.080;21.992;2023-02-02T03:40:11;98180.40;;;1.90;91.54
65872;BME280;52653;50.080;21.992;2023-02-02T03:43:05;98184.52;;;1.87;91.66
65872;BME280;52653;50.080;21.992;2023-02-02T03:46:00;98185.71;;;1.85;91.58
65872;BME280;52653;50.080;21.992;2023-02-02T03:48:47;98190.70;;;1.82;91.66
65872;BME280;52653;50.080;21.992;2023-02-02T03:51:40;98189.48;;;1.80;91.59
65872;BME280;52653;50.080;21.992;2023-02-02T03:54:35;98197.39;;;1.77;91.84
65872;BME280;52653;50.080;21.992;2023-02-02T03:57:28;98190.11;;;1.76;91.76
65872;BME280;52653;50.080;21.992;2023-02-02T04:00:23;98193.73;;;1.75;91.77
65872;BME280;52653;50.080;21.992;2023-02-02T04:03:16;98192.55;;;1.76;91.85
65872;BME280;52653;50.080;21.992;2023-02-02T04:06:11;98194.84;;;1.80;91.67
65872;BME280;52653;50.080;21.992;2023-02-02T04:09:04;98195.21;;;1.83;91.67
65872;BME280;52653;50.080;21.992;2023-02-02T04:12:00;98198.67;;;1.84;91.52
65872;BME280;52653;50.080;21.992;2023-02-02T04:14:53;98200.91;;;1.83;91.57
65872;BME280;52653;50.080;21.992;2023-02-02T04:17:48;98203.17;;;1.84;91.54
65872;BME280;52653;50.080;21.992;2023-02-02T04:20:41;98204.58;;;1.87;91.66
65872;BME280;52653;50.080;21.992;2023-02-02T04:23:34;98210.33;;;1.90;91.47
65872;BME280;52653;50.080;21.992;2023-02-02T04:26:27;98214.79;;;1.88;91.29
65872;BME280;52653;50.080;21.992;2023-02-02T04:29:20;98214.27;;;1.87;91.43
65872;BME280;52653;50.080;21.992;2023-02-02T04:32:14;98218.73;;;1.84;91.37
65872;BME280;52653;50.080;21.992;2023-02-02T04:35:09;98217.52;;;1.83;91.58
65872;BME280;52653;50.080;21.992;2023-02-02T04:38:02;98222.35;;;1.83;91.50
65872;BME280;52653;50.080;21.992;2023-02-02T04:40:56;98223.75;;;1.84;91.61
65872;BME280;52653;50.080;21.992;2023-02-02T04:43:49;98227.71;;;1.84;91.66
65872;BME280;52653;50.080;21.992;2023-02-02T04:46:44;98230.83;;;1.83;91.47
65872;BME280;52653;50.080;21.992;2023-02-02T04:49:37;98230.63;;;1.80;91.41
65872;BME280;52653;50.080;21.992;2023-02-02T04:52:32;98237.36;;;1.79;91.64
65872;BME280;52653;50.080;21.992;2023-02-02T04:55:15;98241.98;;;1.76;91.51
65872;BME280;52653;50.080;21.992;2023-02-02T04:58:09;98247.30;;;1.72;91.73
65872;BME280;52653;50.080;21.992;2023-02-02T05:01:08;98248.86;;;1.73;91.64
65872;BME280;52653;50.080;21.992;2023-02-02T05:03:51;98251.44;;;1.72;91.56
65872;BME280;52653;50.080;21.992;2023-02-02T05:06:44;98255.56;;;1.70;91.44
65872;BME280;52653;50.080;21.992;2023-02-02T05:09:39;98261.27;;;1.69;91.34
65872;BME280;52653;50.080;21.992;2023-02-02T05:12:32;98262.31;;;1.70;91.51
65872;BME280;52653;50.080;21.992;2023-02-02T05:15:25;98270.45;;;1.71;91.48
65872;BME280;52653;50.080;21.992;2023-02-02T05:18:18;98269.44;;;1.75;91.44
65872;BME280;52653;50.080;21.992;2023-02-02T05:21:12;98272.64;;;1.80;91.26
65872;BME280;52653;50.080;21.992;2023-02-02T05:24:05;98276.13;;;1.84;91.23
65872;BME280;52653;50.080;21.992;2023-02-02T05:26:58;98276.14;;;1.85;91.04
65872;BME280;52653;50.080;21.992;2023-02-02T05:29:51;98271.65;;;1.86;90.91
65872;BME280;52653;50.080;21.992;2023-02-02T05:32:44;98278.05;;;1.86;90.93
65872;BME280;52653;50.080;21.992;2023-02-02T05:35:36;98279.92;;;1.83;91.03
65872;BME280;52653;50.080;21.992;2023-02-02T05:38:29;98281.30;;;1.81;91.04
65872;BME280;52653;50.080;21.992;2023-02-02T05:41:23;98290.46;;;1.83;91.25
65872;BME280;52653;50.080;21.992;2023-02-02T05:44:16;98290.64;;;1.83;91.28
65872;BME280;52653;50.080;21.992;2023-02-02T05:47:11;98291.83;;;1.81;91.53
65872;BME280;52653;50.080;21.992;2023-02-02T05:50:05;98292.86;;;1.81;91.74
65872;BME280;52653;50.080;21.992;2023-02-02T05:53:00;98299.77;;;1.81;91.80
65872;BME280;52653;50.080;21.992;2023-02-02T05:55:53;98303.39;;;1.79;91.75
65872;BME280;52653;50.080;21.992;2023-02-02T05:58:47;98306.61;;;1.76;91.90
65872;BME280;52653;50.080;21.992;2023-02-02T06:01:40;98306.61;;;1.76;92.12
65872;BME280;52653;50.080;21.992;2023-02-02T06:04:36;98302.11;;;1.75;92.08
65872;BME280;52653;50.080;21.992;2023-02-02T06:07:29;98305.92;;;1.76;91.94
65872;BME280;52653;50.080;21.992;2023-02-02T06:10:24;98301.10;;;1.77;91.79
65872;BME280;52653;50.080;21.992;2023-02-02T06:13:17;98303.37;;;1.78;91.84
65872;BME280;52653;50.080;21.992;2023-02-02T06:16:11;98299.59;;;1.78;91.80
65872;BME280;52653;50.080;21.992;2023-02-02T06:19:04;98304.79;;;1.80;91.66
65872;BME280;52653;50.080;21.992;2023-02-02T06:21:57;98303.05;;;1.80;91.57
65872;BME280;52653;50.080;21.992;2023-02-02T06:24:49;98303.74;;;1.80;91.66
65872;BME280;52653;50.080;21.992;2023-02-02T06:27:43;98307.56;;;1.82;91.58
65872;BME280;52653;50.080;21.992;2023-02-02T06:30:24;98306.56;;;1.85;91.40
65872;BME280;52653;50.080;21.992;2023-02-02T06:33:17;98307.44;;;1.86;91.27
65872;BME280;52653;50.080;21.992;2023-02-02T06:36:10;98306.80;;;1.90;91.09
65872;BME280;52653;50.080;21.992;2023-02-02T06:38:57;98312.56;;;1.94;90.77
65872;BME280;52653;50.080;21.992;2023-02-02T06:41:50;98308.63;;;1.99;90.63
65872;BME280;52653;50.080;21.992;2023-02-02T06:44:43;98310.55;;;2.01;90.18
65872;BME280;52653;50.080;21.992;2023-02-02T06:47:36;98310.75;;;2.03;89.98
65872;BME280;52653;50.080;21.992;2023-02-02T06:50:29;98319.26;;;2.04;89.65
65872;BME280;52653;50.080;21.992;2023-02-02T06:53:22;98314.63;;;2.09;89.73
65872;BME280;52653;50.080;21.992;2023-02-02T06:56:17;98315.88;;;2.13;89.31
65872;BME280;52653;50.080;21.992;2023-02-02T06:59:10;98324.25;;;2.18;89.28
65872;BME280;52653;50.080;21.992;2023-02-02T07:02:03;98322.73;;;2.20;88.68
65872;BME280;52653;50.080;21.992;2023-02-02T07:04:55;98321.89;;;2.24;88.43
65872;BME280;52653;50.080;21.992;2023-02-02T07:07:51;98330.08;;;2.29;88.31
65872;BME280;52653;50.080;21.992;2023-02-02T07:10:44;98324.08;;;2.34;87.88
65872;BME280;52653;50.080;21.992;2023-02-02T07:13:48;98327.58;;;2.40;87.42
65872;BME280;52653;50.080;21.992;2023-02-02T07:16:41;98327.48;;;2.46;87.11
65872;BME280;52653;50.080;21.992;2023-02-02T07:19:28;98326.89;;;2.55;87.20
65872;BME280;52653;50.080;21.992;2023-02-02T07:22:21;98327.11;;;2.61;86.53
65872;BME280;52653;50.080;21.992;2023-02-02T07:25:14;98326.14;;;2.67;86.12
65872;BME280;52653;50.080;21.992;2023-02-02T07:27:57;98329.29;;;2.71;85.72
65872;BME280;52653;50.080;21.992;2023-02-02T07:30:40;98336.41;;;2.75;85.30
65872;BME280;52653;50.080;21.992;2023-02-02T07:33:33;98331.59;;;2.78;85.34
65872;BME280;52653;50.080;21.992;2023-02-02T07:36:24;98329.77;;;2.85;85.22
65872;BME280;52653;50.080;21.992;2023-02-02T07:39:07;98323.73;;;2.90;84.58
65872;BME280;52653;50.080;21.992;2023-02-02T07:41:50;98322.08;;;2.98;84.58
65872;BME280;52653;50.080;21.992;2023-02-02T07:44:46;98312.95;;;3.05;84.22
65872;BME280;52653;50.080;21.992;2023-02-02T07:47:40;98317.31;;;3.10;83.72
65872;BME280;52653;50.080;21.992;2023-02-02T07:50:34;98314.55;;;3.11;83.37
65872;BME280;52653;50.080;21.992;2023-02-02T07:53:28;98313.86;;;3.13;83.24
65872;BME280;52653;50.080;21.992;2023-02-02T07:56:12;98314.73;;;3.13;83.21
65872;BME280;52653;50.080;21.992;2023-02-02T07:59:04;98316.45;;;3.12;82.77
65872;BME280;52653;50.080;21.992;2023-02-02T08:01:55;98310.39;;;3.11;82.73
65872;BME280;52653;50.080;21.992;2023-02-02T08:04:41;98313.71;;;3.15;82.92
65872;BME280;52653;50.080;21.992;2023-02-02T08:07:35;98312.38;;;3.22;82.60
65872;BME280;52653;50.080;21.992;2023-02-02T08:10:28;98311.76;;;3.33;82.22
65872;BME280;52653;50.080;21.992;2023-02-02T08:13:22;98308.03;;;3.46;81.82
65872;BME280;52653;50.080;21.992;2023-02-02T08:16:14;98305.85;;;3.63;81.79
65872;BME280;52653;50.080;21.992;2023-02-02T08:19:08;98302.63;;;3.74;80.89
65872;BME280;52653;50.080;21.992;2023-02-02T08:22:02;98299.71;;;3.81;81.04
65872;BME280;52653;50.080;21.992;2023-02-02T08:24:45;98294.36;;;3.85;80.78
65872;BME280;52653;50.080;21.992;2023-02-02T08:27:31;98292.27;;;3.84;80.37
65872;BME280;52653;50.080;21.992;2023-02-02T08:30:27;98286.20;;;3.82;79.95
65872;BME280;52653;50.080;21.992;2023-02-02T08:33:19;98283.42;;;3.84;79.78
65872;BME280;52653;50.080;21.992;2023-02-02T08:36:03;98283.64;;;3.96;79.75
65872;BME280;52653;50.080;21.992;2023-02-02T08:38:58;98286.43;;;4.03;78.81
65872;BME280;52653;50.080;21.992;2023-02-02T08:41:56;98284.20;;;4.11;79.15
65872;BME280;52653;50.080;21.992;2023-02-02T08:44:50;98284.06;;;4.21;78.37
65872;BME280;52653;50.080;21.992;2023-02-02T08:47:56;98276.80;;;4.32;78.89
65872;BME280;52653;50.080;21.992;2023-02-02T08:50:56;98271.43;;;4.41;77.95
65872;BME280;52653;50.080;21.992;2023-02-02T08:53:49;98269.02;;;4.50;77.11
65872;BME280;52653;50.080;21.992;2023-02-02T08:56:41;98266.77;;;4.61;76.73
65872;BME280;52653;50.080;21.992;2023-02-02T08:59:35;98266.41;;;4.77;76.06
65872;BME280;52653;50.080;21.992;2023-02-02T09:02:20;98263.48;;;4.93;75.38
65872;BME280;52653;50.080;21.992;2023-02-02T09:05:13;98265.02;;;5.12;75.13
65872;BME280;52653;50.080;21.992;2023-02-02T09:08:06;98258.39;;;5.19;73.76
65872;BME280;52653;50.080;21.992;2023-02-02T09:11:03;98265.36;;;5.21;73.56
65872;BME280;52653;50.080;21.992;2023-02-02T09:13:58;98260.99;;;5.27;73.49
65872;BME280;52653;50.080;21.992;2023-02-02T09:16:53;98260.83;;;5.26;73.57
65872;BME280;52653;50.080;21.992;2023-02-02T09:19:36;98258.91;;;5.27;74.06
65872;BME280;52653;50.080;21.992;2023-02-02T09:22:22;98260.84;;;5.17;73.44
65872;BME280;52653;50.080;21.992;2023-02-02T09:25:15;98260.16;;;5.11;73.91
65872;BME280;52653;50.080;21.992;2023-02-02T09:28:08;98258.76;;;5.16;74.20
65872;BME280;52653;50.080;21.992;2023-02-02T09:30:53;98251.83;;;5.05;74.07
65872;BME280;52653;50.080;21.992;2023-02-02T09:33:39;98249.23;;;4.96;75.44
65872;BME280;52653;50.080;21.992;2023-02-02T09:36:23;98251.30;;;4.92;75.65
65872;BME280;52653;50.080;21.992;2023-02-02T09:39:21;98251.84;;;4.85;76.14
65872;BME280;52653;50.080;21.992;2023-02-02T09:42:37;98255.30;;;4.78;76.50
65872;BME280;52653;50.080;21.992;2023-02-02T09:45:40;98252.89;;;4.65;77.38
65872;BME280;52653;50.080;21.992;2023-02-02T09:48:44;98249.58;;;4.51;77.76
65872;BME280;52653;50.080;21.992;2023-02-02T09:51:45;98246.78;;;4.37;78.54
65872;BME280;52653;50.080;21.992;2023-02-02T09:54:45;98247.96;;;4.25;79.05
65872;BME280;52653;50.080;21.992;2023-02-02T09:57:43;98249.85;;;4.18;79.68
65872;BME280;52653;50.080;21.992;2023-02-02T10:00:41;98245.01;;;4.18;80.17
65872;BME280;52653;50.080;21.992;2023-02-02T10:03:41;98246.41;;;4.23;80.31
65872;BME280;52653;50.080;21.992;2023-02-02T10:06:34;98242.61;;;4.35;80.60
65872;BME280;52653;50.080;21.992;2023-02-02T10:09:35;98238.96;;;4.32;79.91
65872;BME280;52653;50.080;21.992;2023-02-02T10:12:40;98230.95;;;4.20;79.74
65872;BME280;52653;50.080;21.992;2023-02-02T10:15:36;98231.80;;;4.09;80.35
65872;BME280;52653;50.080;21.992;2023-02-02T10:18:42;98229.34;;;4.04;81.16
65872;BME280;52653;50.080;21.992;2023-02-02T10:21:42;98231.27;;;4.02;81.80
65872;BME280;52653;50.080;21.992;2023-02-02T10:24:37;98227.27;;;3.99;82.12
65872;BME280;52653;50.080;21.992;2023-02-02T10:27:36;98226.02;;;3.90;82.28
65872;BME280;52653;50.080;21.992;2023-02-02T10:30:38;98232.75;;;3.79;82.40
65872;BME280;52653;50.080;21.992;2023-02-02T10:33:38;98225.61;;;3.69;82.71
65872;BME280;52653;50.080;21.992;2023-02-02T10:36:27;98223.02;;;3.72;83.04
65872;BME280;52653;50.080;21.992;2023-02-02T10:39:37;98223.07;;;3.85;83.32
65872;BME280;52653;50.080;21.992;2023-02-02T10:42:41;98216.83;;;3.88;83.05
65872;BME280;52653;50.080;21.992;2023-02-02T10:45:52;98217.50;;;3.79;83.05
65872;BME280;52653;50.080;21.992;2023-02-02T10:48:34;98220.09;;;3.75;83.43
65872;BME280;52653;50.080;21.992;2023-02-02T10:51:28;98216.94;;;3.70;83.40
65872;BME280;52653;50.080;21.992;2023-02-02T10:54:33;98217.44;;;3.61;83.57
65872;BME280;52653;50.080;21.992;2023-02-02T10:57:52;98226.58;;;3.52;83.98
65872;BME280;52653;50.080;21.992;2023-02-02T11:00:51;98221.00;;;3.44;84.68
65872;BME280;52653;50.080;21.992;2023-02-02T11:03:44;98221.66;;;3.35;85.06
65872;BME280;52653;50.080;21.992;2023-02-02T11:06:39;98221.09;;;3.25;85.30
65872;BME280;52653;50.080;21.992;2023-02-02T11:09:43;98218.77;;;3.16;85.43
65872;BME280;52653;50.080;21.992;2023-02-02T11:12:36;98221.18;;;3.13;85.83
65872;BME280;52653;50.080;21.992;2023-02-02T11:15:30;98213.20;;;3.09;86.01
65872;BME280;52653;50.080;21.992;2023-02-02T11:18:29;98212.48;;;3.05;86.27
65872;BME280;52653;50.080;21.992;2023-02-02T11:21:25;98211.92;;;3.00;86.36
65872;BME280;52653;50.080;21.992;2023-02-02T11:24:22;98213.27;;;2.93;86.52
65872;BME280;52653;50.080;21.992;2023-02-02T11:27:18;98206.44;;;2.81;86.53
65872;BME280;52653;50.080;21.992;2023-02-02T11:30:23;98206.55;;;2.72;87.08
65872;BME280;52653;50.080;21.992;2023-02-02T11:33:25;98205.79;;;2.63;87.67
65872;BME280;52653;50.080;21.992;2023-02-02T11:36:20;98205.75;;;2.57;88.03
65872;BME280;52653;50.080;21.992;2023-02-02T11:39:20;98202.73;;;2.49;88.50
65872;BME280;52653;50.080;21.992;2023-02-02T11:42:17;98198.00;;;2.42;88.58
65872;BME280;52653;50.080;21.992;2023-02-02T11:45:17;98198.64;;;2.35;88.83
65872;BME280;52653;50.080;21.992;2023-02-02T11:48:16;98195.83;;;2.29;89.31
65872;BME280;52653;50.080;21.992;2023-02-02T11:51:22;98195.27;;;2.25;89.83
65872;BME280;52653;50.080;21.992;2023-02-02T11:54:20;98190.08;;;2.25;90.24
65872;BME280;52653;50.080;21.992;2023-02-02T11:57:18;98190.13;;;2.30;90.38
65872;BME280;52653;50.080;21.992;2023-02-02T12:00:24;98192.47;;;2.42;90.48
65872;BME280;52653;50.080;21.992;2023-02-02T12:03:29;98191.36;;;2.56;90.40
65872;BME280;52653;50.080;21.992;2023-02-02T12:06:20;98187.81;;;2.67;90.28
65872;BME280;52653;50.080;21.992;2023-02-02T12:09:18;98198.95;;;2.74;89.69
65872;BME280;52653;50.080;21.992;2023-02-02T12:12:37;98189.80;;;2.79;89.37
65872;BME280;52653;50.080;21.992;2023-02-02T12:15:41;98182.73;;;2.83;89.17
65872;BME280;52653;50.080;21.992;2023-02-02T12:18:47;98191.59;;;2.87;89.19
65872;BME280;52653;50.080;21.992;2023-02-02T12:21:44;98187.42;;;2.86;88.94
65872;BME280;52653;50.080;21.992;2023-02-02T12:24:45;98197.98;;;2.84;88.90
65872;BME280;52653;50.080;21.992;2023-02-02T12:27:49;98200.75;;;2.85;89.14
65872;BME280;52653;50.080;21.992;2023-02-02T12:30:53;98205.05;;;2.80;88.91
65872;BME280;52653;50.080;21.992;2023-02-02T12:33:54;98207.23;;;2.72;89.29
65872;BME280;52653;50.080;21.992;2023-02-02T12:36:57;98205.48;;;2.68;89.64
65872;BME280;52653;50.080;21.992;2023-02-02T12:40:05;98200.45;;;2.67;89.68
65872;BME280;52653;50.080;21.992;2023-02-02T12:43:14;98200.45;;;2.66;89.80
65872;BME280;52653;50.080;21.992;2023-02-02T12:46:34;98210.30;;;2.66;89.85
65872;BME280;52653;50.080;21.992;2023-02-02T12:49:46;98208.21;;;2.65;89.79
65872;BME280;52653;50.080;21.992;2023-02-02T12:53:01;98213.58;;;2.63;90.01
65872;BME280;52653;50.080;21.992;2023-02-02T12:56:10;98211.01;;;2.66;89.98
65872;BME280;52653;50.080;21.992;2023-02-02T12:59:13;98211.85;;;2.65;90.01
65872;BME280;52653;50.080;21.992;2023-02-02T13:02:03;98209.11;;;2.67;90.17
65872;BME280;52653;50.080;21.992;2023-02-02T13:05:07;98216.43;;;2.74;90.04
65872;BME280;52653;50.080;21.992;2023-02-02T13:08:07;98214.73;;;2.79;89.71
65872;BME280;52653;50.080;21.992;2023-02-02T13:11:05;98220.67;;;2.85;89.54
65872;BME280;52653;50.080;21.992;2023-02-02T13:14:25;98227.26;;;2.88;89.10
65872;BME280;52653;50.080;21.992;2023-02-02T13:17:22;98231.40;;;2.85;89.14
65872;BME280;52653;50.080;21.992;2023-02-02T13:20:26;98240.58;;;2.84;89.42
65872;BME280;52653;50.080;21.992;2023-02-02T13:23:25;98232.78;;;2.84;89.44
65872;BME280;52653;50.080;21.992;2023-02-02T13:26:08;98247.34;;;2.86;89.52
65872;BME280;52653;50.080;21.992;2023-02-02T13:28:59;98247.87;;;2.87;89.73
65872;BME280;52653;50.080;21.992;2023-02-02T13:31:58;98253.92;;;2.86;89.26
65872;BME280;52653;50.080;21.992;2023-02-02T13:34:54;98256.00;;;2.86;89.31
65872;BME280;52653;50.080;21.992;2023-02-02T13:37:54;98255.64;;;2.86;89.58
65872;BME280;52653;50.080;21.992;2023-02-02T13:40:52;98266.05;;;2.88;90.04
65872;BME280;52653;50.080;21.992;2023-02-02T13:43:53;98265.88;;;2.87;89.94
65872;BME280;52653;50.080;21.992;2023-02-02T13:46:51;98276.61;;;2.87;89.68
65872;BME280;52653;50.080;21.992;2023-02-02T13:49:51;98275.58;;;2.89;89.84
65872;BME280;52653;50.080;21.992;2023-02-02T13:53:03;98281.98;;;2.89;89.54
65872;BME280;52653;50.080;21.992;2023-02-02T13:56:18;98293.97;;;2.92;89.58
65872;BME280;52653;50.080;21.992;2023-02-02T13:59:29;98302.30;;;2.92;89.81
65872;BME280;52653;50.080;21.992;2023-02-02T14:02:32;98301.05;;;2.91;89.96
65872;BME280;52653;50.080;21.992;2023-02-02T14:05:33;98310.91;;;2.89;90.18
65872;BME280;52653;50.080;21.992;2023-02-02T14:08:26;98316.10;;;2.89;90.14
65872;BME280;52653;50.080;21.992;2023-02-02T14:11:24;98320.27;;;2.89;90.45
65872;BME280;52653;50.080;21.992;2023-02-02T14:14:18;98324.08;;;2.91;90.66
65872;BME280;52653;50.080;21.992;2023-02-02T14:17:53;98325.80;;;2.89;90.80
65872;BME280;52653;50.080;21.992;2023-02-02T14:20:49;98336.33;;;2.83;90.85
65872;BME280;52653;50.080;21.992;2023-02-02T14:23:53;98339.23;;;2.80;91.08
65872;BME280;52653;50.080;21.992;2023-02-02T14:26:50;98336.94;;;2.76;91.13
65872;BME280;52653;50.080;21.992;2023-02-02T14:30:11;98342.81;;;2.74;91.02
65872;BME280;52653;50.080;21.992;2023-02-02T14:33:38;98349.39;;;2.74;91.21
65872;BME280;52653;50.080;21.992;2023-02-02T14:36:39;98359.95;;;2.72;91.61
65872;BME280;52653;50.080;21.992;2023-02-02T14:39:52;98365.64;;;2.70;91.73
65872;BME280;52653;50.080;21.992;2023-02-02T14:43:02;98377.23;;;2.69;91.63
65872;BME280;52653;50.080;21.992;2023-02-02T14:46:34;98374.78;;;2.67;91.74
65872;BME280;52653;50.080;21.992;2023-02-02T14:49:32;98381.70;;;2.67;91.95
65872;BME280;52653;50.080;21.992;2023-02-02T14:52:31;98383.42;;;2.66;92.18
65872;BME280;52653;50.080;21.992;2023-02-02T14:55:26;98391.41;;;2.67;92.18
65872;BME280;52653;50.080;21.992;2023-02-02T14:58:23;98393.16;;;2.69;92.20
65872;BME280;52653;50.080;21.992;2023-02-02T15:01:20;98403.39;;;2.73;92.32
65872;BME280;52653;50.080;21.992;2023-02-02T15:04:25;98410.16;;;2.73;92.14
65872;BME280;52653;50.080;21.992;2023-02-02T15:07:36;98410.33;;;2.74;92.18
65872;BME280;52653;50.080;21.992;2023-02-02T15:10:59;98423.50;;;2.75;92.09
65872;BME280;52653;50.080;21.992;2023-02-02T15:16:55;98420.04;;;2.75;92.36
65872;BME280;52653;50.080;21.992;2023-02-02T15:19:52;98422.83;;;2.77;92.34
65872;BME280;52653;50.080;21.992;2023-02-02T15:22:47;98429.91;;;2.76;92.49
65872;BME280;52653;50.080;21.992;2023-02-02T15:25:45;98440.95;;;2.71;92.23
65872;BME280;52653;50.080;21.992;2023-02-02T15:28:44;98444.14;;;2.63;92.43
65872;BME280;52653;50.080;21.992;2023-02-02T15:31:43;98446.03;;;2.61;92.64
65872;BME280;52653;50.080;21.992;2023-02-02T15:34:45;98451.58;;;2.61;92.81
65872;BME280;52653;50.080;21.992;2023-02-02T15:37:40;98461.10;;;2.61;92.80
65872;BME280;52653;50.080;21.992;2023-02-02T15:40:37;98468.55;;;2.62;92.92
65872;BME280;52653;50.080;21.992;2023-02-02T15:43:26;98473.91;;;2.63;92.91